sensor_id;sensor_type;location;lat;lon;timestamp;P1;durP1;ratioP1;P2;durP2;ratioP2
71164;SDS011;58859;55.132;-1.586;2023-02-22T00:00:12;1.00;;;1.00;;
71164;SDS011;58859;55.132;-1.586;2023-02-22T00:02:51;1.42;;;0.90;;
71164;SDS011;58859;55.132;-1.586;2023-02-22T00:05:24;1.85;;;1.02;;
71164;SDS011;58859;55.132;-1.586;2023-02-22T00:07:51;0.70;;;0.70;;
71164;SDS011;58859;55.132;-1.586;2023-02-22T00:10:16;1.07;;;1.00;;
71164;SDS011;58859;55.132;-1.586;2023-02-22T00:12:45;0.82;;;0.82;;
71164;SDS011;58859;55.132;-1.586;2023-02-22T00:15:13;1.30;;;1.20;;
71164;SDS011;58859;55.132;-1.586;2023-02-22T00:17:39;2.92;;;1.35;;
71164;SDS011;58859;55.132;-1.586;2023-02-22T00:20:06;1.47;;;1.10;;
71164;SDS011;58859;55.132;-1.586;2023-02-22T00:22:32;3.00;;;1.35;;
71164;SDS011;58859;55.132;-1.586;2023-02-22T00:24:58;5.73;;;2.40;;
71164;SDS011;58859;55.132;-1.586;2023-02-22T00:27:23;1.10;;;0.90;;
71164;SDS011;58859;55.132;-1.586;2023-02-22T00:29:49;2.15;;;1.20;;
71164;SDS011;58859;55.132;-1.586;2023-02-22T00:32:14;1.57;;;1.20;;
71164;SDS011;58859;55.132;-1.586;2023-02-22T00:34:40;1.53;;;1.03;;
71164;SDS011;58859;55.132;-1.586;2023-02-22T00:37:07;1.88;;;1.10;;
71164;SDS011;58859;55.132;-1.586;2023-02-22T00:39:34;2.25;;;1.30;;
71164;SDS011;58859;55.132;-1.586;2023-02-22T00:42:00;1.47;;;1.30;;
71164;SDS011;58859;55.132;-1.586;2023-02-22T00:44:25;1.83;;;1.30;;
71164;SDS011;58859;55.132;-1.586;2023-02-22T00:46:51;1.27;;;1.17;;
71164;SDS011;58859;55.132;-1.586;2023-02-22T00:49:16;1.97;;;1.13;;
71164;SDS011;58859;55.132;-1.586;2023-02-22T00:51:42;0.75;;;0.75;;
71164;SDS011;58859;55.132;-1.586;2023-02-22T00:54:08;1.37;;;1.17;;
71164;SDS011;58859;55.132;-1.586;2023-02-22T00:56:34;2.78;;;1.48;;
71164;SDS011;58859;55.132;-1.586;2023-02-22T00:59:01;1.55;;;1.45;;
71164;SDS011;58859;55.132;-1.586;2023-02-22T01:01:27;1.95;;;1.75;;
71164;SDS011;58859;55.132;-1.586;2023-02-22T01:03:53;2.97;;;1.60;;
71164;SDS011;58859;55.132;-1.586;2023-02-22T01:06:18;2.07;;;1.50;;
71164;SDS011;58859;55.132;-1.586;2023-02-22T01:08:44;2.45;;;1.60;;
71164;SDS011;58859;55.132;-1.586;2023-02-22T01:11:10;1.40;;;1.15;;
71164;SDS011;58859;55.132;-1.586;2023-02-22T01:13:36;1.67;;;1.30;;
71164;SDS011;58859;55.132;-1.586;2023-02-22T01:16:03;1.38;;;1.27;;
71164;SDS011;58859;55.132;-1.586;2023-02-22T01:18:32;1.13;;;1.05;;
71164;SDS011;58859;55.132;-1.586;2023-02-22T01:21:01;2.50;;;1.52;;
71164;SDS011;58859;55.132;-1.586;2023-02-22T01:23:29;2.75;;;2.10;;
71164;SDS011;58859;55.132;-1.586;2023-02-22T01:25:55;3.83;;;1.90;;
71164;SDS011;58859;55.132;-1.586;2023-02-22T01:28:20;4.00;;;2.30;;
71164;SDS011;58859;55.132;-1.586;2023-02-22T01:30:46;2.57;;;1.90;;
71164;SDS011;58859;55.132;-1.586;2023-02-22T01:33:12;2.20;;;2.00;;
71164;SDS011;58859;55.132;-1.586;2023-02-22T01:35:40;1.90;;;1.48;;
71164;SDS011;58859;55.132;-1.586;2023-02-22T01:38:06;1.83;;;1.73;;
71164;SDS011;58859;55.132;-1.586;2023-02-22T01:40:39;1.80;;;1.70;;
71164;SDS011;58859;55.132;-1.586;2023-02-22T01:43:21;2.35;;;1.80;;
71164;SDS011;58859;55.132;-1.586;2023-02-22T01:48:40;1.95;;;1.30;;
71164;SDS011;58859;55.132;-1.586;2023-02-22T01:51:11;1.33;;;1.23;;
71164;SDS011;58859;55.132;-1.586;2023-02-22T01:53:46;2.20;;;1.57;;
71164;SDS011;58859;55.132;-1.586;2023-02-22T01:56:17;1.63;;;1.50;;
71164;SDS011;58859;55.132;-1.586;2023-02-22T01:58:45;1.60;;;1.50;;
71164;SDS011;58859;55.132;-1.586;2023-02-22T02:01:14;2.47;;;1.52;;
71164;SDS011;58859;55.132;-1.586;2023-02-22T02:03:40;1.58;;;1.40;;
71164;SDS011;58859;55.132;-1.586;2023-02-22T02:06:07;1.00;;;1.00;;
71164;SDS011;58859;55.132;-1.586;2023-02-22T02:08:40;2.70;;;1.45;;
71164;SDS011;58859;55.132;-1.586;2023-02-22T02:11:14;2.75;;;1.42;;
71164;SDS011;58859;55.132;-1.586;2023-02-22T02:13:40;1.35;;;1.25;;
71164;SDS011;58859;55.132;-1.586;2023-02-22T02:16:06;1.30;;;1.30;;
71164;SDS011;58859;55.132;-1.586;2023-02-22T02:18:31;1.20;;;1.10;;
71164;SDS011;58859;55.132;-1.586;2023-02-22T02:38:14;1.50;;;1.40;;
71164;SDS011;58859;55.132;-1.586;2023-02-22T02:40:45;2.30;;;1.40;;
71164;SDS011;58859;55.132;-1.586;2023-02-22T02:48:14;1.67;;;1.48;;
71164;SDS011;58859;55.132;-1.586;2023-02-22T02:50:43;1.70;;;1.60;;
71164;SDS011;58859;55.132;-1.586;2023-02-22T02:53:10;1.20;;;1.10;;
71164;SDS011;58859;55.132;-1.586;2023-02-22T02:55:38;1.33;;;1.20;;
71164;SDS011;58859;55.132;-1.586;2023-02-22T02:58:04;1.20;;;1.10;;
71164;SDS011;58859;55.132;-1.586;2023-02-22T03:00:31;1.30;;;1.20;;
71164;SDS011;58859;55.132;-1.586;2023-02-22T03:10:44;1.13;;;1.10;;
71164;SDS011;58859;55.132;-1.586;2023-02-22T03:13:34;1.05;;;1.05;;
71164;SDS011;58859;55.132;-1.586;2023-02-22T03:24:06;1.02;;;1.02;;
71164;SDS011;58859;55.132;-1.586;2023-02-22T03:26:40;1.50;;;1.40;;
71164;SDS011;58859;55.132;-1.586;2023-02-22T03:29:08;1.50;;;1.40;;
71164;SDS011;58859;55.132;-1.586;2023-02-22T03:31:39;1.50;;;1.40;;
71164;SDS011;58859;55.132;-1.586;2023-02-22T03:36:49;2.10;;;1.48;;
71164;SDS011;58859;55.132;-1.586;2023-02-22T03:39:20;1.75;;;1.48;;
71164;SDS011;58859;55.132;-1.586;2023-02-22T03:41:46;1.90;;;1.60;;
71164;SDS011;58859;55.132;-1.586;2023-02-22T03:44:16;2.08;;;1.60;;
71164;SDS011;58859;55.132;-1.586;2023-02-22T03:46:43;8.02;;;2.58;;
71164;SDS011;58859;55.132;-1.586;2023-02-22T03:51:37;2.50;;;2.22;;
71164;SDS011;58859;55.132;-1.586;2023-02-22T03:54:03;3.50;;;2.38;;
71164;SDS011;58859;55.132;-1.586;2023-02-22T03:56:30;2.38;;;2.13;;
71164;SDS011;58859;55.132;-1.586;2023-02-22T03:59:07;2.92;;;2.30;;
71164;SDS011;58859;55.132;-1.586;2023-02-22T04:01:33;2.87;;;2.13;;
71164;SDS011;58859;55.132;-1.586;2023-02-22T04:03:59;2.67;;;2.08;;
71164;SDS011;58859;55.132;-1.586;2023-02-22T04:06:25;3.50;;;2.37;;
71164;SDS011;58859;55.132;-1.586;2023-02-22T04:08:51;3.90;;;2.33;;
71164;SDS011;58859;55.132;-1.586;2023-02-22T04:11:17;4.00;;;2.57;;
71164;SDS011;58859;55.132;-1.586;2023-02-22T04:13:42;4.32;;;2.22;;
71164;SDS011;58859;55.132;-1.586;2023-02-22T04:16:08;2.03;;;1.83;;
71164;SDS011;58859;55.132;-1.586;2023-02-22T04:18:33;2.20;;;2.00;;
71164;SDS011;58859;55.132;-1.586;2023-02-22T04:20:59;5.07;;;2.40;;
71164;SDS011;58859;55.132;-1.586;2023-02-22T04:23:24;3.08;;;2.30;;
71164;SDS011;58859;55.132;-1.586;2023-02-22T04:25:51;3.83;;;2.13;;
71164;SDS011;58859;55.132;-1.586;2023-02-22T04:28:16;3.78;;;2.33;;
71164;SDS011;58859;55.132;-1.586;2023-02-22T04:30:42;3.40;;;2.72;;
71164;SDS011;58859;55.132;-1.586;2023-02-22T04:33:08;2.17;;;1.93;;
71164;SDS011;58859;55.132;-1.586;2023-02-22T04:35:34;3.95;;;2.30;;
71164;SDS011;58859;55.132;-1.586;2023-02-22T04:38:00;3.07;;;2.10;;
71164;SDS011;58859;55.132;-1.586;2023-02-22T04:40:25;5.30;;;2.13;;
71164;SDS011;58859;55.132;-1.586;2023-02-22T04:42:51;2.25;;;2.05;;
71164;SDS011;58859;55.132;-1.586;2023-02-22T04:45:16;4.65;;;2.30;;
71164;SDS011;58859;55.132;-1.586;2023-02-22T04:47:41;3.53;;;2.23;;
71164;SDS011;58859;55.132;-1.586;2023-02-22T04:50:08;2.77;;;2.30;;
71164;SDS011;58859;55.132;-1.586;2023-02-22T04:52:33;2.47;;;2.28;;
71164;SDS011;58859;55.132;-1.586;2023-02-22T04:54:59;3.03;;;2.13;;
71164;SDS011;58859;55.132;-1.586;2023-02-22T04:57:24;3.50;;;2.22;;
71164;SDS011;58859;55.132;-1.586;2023-02-22T04:59:51;5.03;;;2.33;;
71164;SDS011;58859;55.132;-1.586;2023-02-22T05:02:17;3.08;;;1.95;;
71164;SDS011;58859;55.132;-1.586;2023-02-22T05:04:42;4.75;;;2.00;;
71164;SDS011;58859;55.132;-1.586;2023-02-22T05:07:09;3.38;;;1.90;;
71164;SDS011;58859;55.132;-1.586;2023-02-22T05:09:34;3.20;;;1.93;;
71164;SDS011;58859;55.132;-1.586;2023-02-22T05:12:00;3.43;;;2.13;;
71164;SDS011;58859;55.132;-1.586;2023-02-22T05:14:25;3.60;;;2.30;;
71164;SDS011;58859;55.132;-1.586;2023-02-22T05:16:53;3.83;;;1.80;;
71164;SDS011;58859;55.132;-1.586;2023-02-22T05:19:21;4.88;;;2.38;;
71164;SDS011;58859;55.132;-1.586;2023-02-22T05:21:47;2.55;;;2.35;;
71164;SDS011;58859;55.132;-1.586;2023-02-22T05:24:13;3.87;;;2.60;;
71164;SDS011;58859;55.132;-1.586;2023-02-22T05:26:38;2.77;;;2.40;;
71164;SDS011;58859;55.132;-1.586;2023-02-22T05:29:04;5.00;;;2.78;;
71164;SDS011;58859;55.132;-1.586;2023-02-22T05:31:30;2.75;;;2.42;;
71164;SDS011;58859;55.132;-1.586;2023-02-22T05:33:55;5.43;;;2.30;;
71164;SDS011;58859;55.132;-1.586;2023-02-22T05:36:22;4.32;;;2.20;;
71164;SDS011;58859;55.132;-1.586;2023-02-22T05:38:48;4.30;;;2.50;;
71164;SDS011;58859;55.132;-1.586;2023-02-22T05:41:13;7.00;;;2.87;;
71164;SDS011;58859;55.132;-1.586;2023-02-22T05:43:39;2.83;;;2.50;;
71164;SDS011;58859;55.132;-1.586;2023-02-22T05:46:05;4.57;;;2.50;;
71164;SDS011;58859;55.132;-1.586;2023-02-22T05:48:30;3.50;;;2.10;;
71164;SDS011;58859;55.132;-1.586;2023-02-22T05:50:56;2.60;;;1.97;;
71164;SDS011;58859;55.132;-1.586;2023-02-22T05:53:22;3.80;;;2.70;;
71164;SDS011;58859;55.132;-1.586;2023-02-22T05:55:48;4.20;;;2.80;;
71164;SDS011;58859;55.132;-1.586;2023-02-22T05:58:14;3.88;;;2.45;;
71164;SDS011;58859;55.132;-1.586;2023-02-22T06:00:39;4.20;;;2.70;;
71164;SDS011;58859;55.132;-1.586;2023-02-22T06:03:06;3.30;;;2.63;;
71164;SDS011;58859;55.132;-1.586;2023-02-22T06:05:32;3.15;;;2.67;;
71164;SDS011;58859;55.132;-1.586;2023-02-22T06:07:57;4.07;;;2.65;;
71164;SDS011;58859;55.132;-1.586;2023-02-22T06:10:23;4.57;;;2.85;;
71164;SDS011;58859;55.132;-1.586;2023-02-22T06:12:50;4.07;;;2.70;;
71164;SDS011;58859;55.132;-1.586;2023-02-22T06:15:16;5.60;;;2.80;;
71164;SDS011;58859;55.132;-1.586;2023-02-22T06:17:42;3.60;;;2.72;;
71164;SDS011;58859;55.132;-1.586;2023-02-22T06:20:08;2.97;;;2.25;;
71164;SDS011;58859;55.132;-1.586;2023-02-22T06:22:35;3.83;;;2.80;;
71164;SDS011;58859;55.132;-1.586;2023-02-22T06:25:03;4.68;;;2.50;;
71164;SDS011;58859;55.132;-1.586;2023-02-22T06:27:30;4.87;;;2.93;;
71164;SDS011;58859;55.132;-1.586;2023-02-22T06:29:57;4.22;;;2.85;;
71164;SDS011;58859;55.132;-1.586;2023-02-22T06:32:23;6.35;;;2.47;;
71164;SDS011;58859;55.132;-1.586;2023-02-22T06:34:48;4.80;;;2.90;;
71164;SDS011;58859;55.132;-1.586;2023-02-22T06:37:13;6.27;;;2.60;;
71164;SDS011;58859;55.132;-1.586;2023-02-22T06:39:39;4.05;;;2.22;;
71164;SDS011;58859;55.132;-1.586;2023-02-22T06:42:04;2.92;;;2.63;;
71164;SDS011;58859;55.132;-1.586;2023-02-22T06:44:29;2.73;;;2.30;;
71164;SDS011;58859;55.132;-1.586;2023-02-22T06:46:55;3.13;;;2.53;;
71164;SDS011;58859;55.132;-1.586;2023-02-22T06:49:21;4.30;;;2.77;;
71164;SDS011;58859;55.132;-1.586;2023-02-22T06:51:46;5.03;;;3.05;;
71164;SDS011;58859;55.132;-1.586;2023-02-22T06:54:12;5.80;;;3.03;;
71164;SDS011;58859;55.132;-1.586;2023-02-22T06:56:38;3.10;;;2.53;;
71164;SDS011;58859;55.132;-1.586;2023-02-22T06:59:03;3.00;;;2.70;;
71164;SDS011;58859;55.132;-1.586;2023-02-22T07:01:28;3.73;;;2.60;;
71164;SDS011;58859;55.132;-1.586;2023-02-22T07:03:54;4.03;;;3.10;;
71164;SDS011;58859;55.132;-1.586;2023-02-22T07:06:19;3.47;;;2.50;;
71164;SDS011;58859;55.132;-1.586;2023-02-22T07:08:46;4.20;;;2.50;;
71164;SDS011;58859;55.132;-1.586;2023-02-22T07:11:12;3.83;;;2.73;;
71164;SDS011;58859;55.132;-1.586;2023-02-22T07:13:38;3.88;;;3.03;;
71164;SDS011;58859;55.132;-1.586;2023-02-22T07:16:03;3.50;;;2.90;;
71164;SDS011;58859;55.132;-1.586;2023-02-22T07:18:29;3.97;;;3.10;;
71164;SDS011;58859;55.132;-1.586;2023-02-22T07:20:55;5.43;;;3.10;;
71164;SDS011;58859;55.132;-1.586;2023-02-22T07:23:22;3.58;;;2.63;;
71164;SDS011;58859;55.132;-1.586;2023-02-22T07:25:48;5.13;;;2.43;;
71164;SDS011;58859;55.132;-1.586;2023-02-22T07:28:13;6.00;;;2.70;;
71164;SDS011;58859;55.132;-1.586;2023-02-22T07:30:39;4.10;;;3.00;;
71164;SDS011;58859;55.132;-1.586;2023-02-22T07:33:05;8.17;;;3.57;;
71164;SDS011;58859;55.132;-1.586;2023-02-22T07:38:03;4.20;;;2.97;;
71164;SDS011;58859;55.132;-1.586;2023-02-22T07:40:30;4.63;;;2.93;;
71164;SDS011;58859;55.132;-1.586;2023-02-22T07:43:03;5.07;;;3.25;;
71164;SDS011;58859;55.132;-1.586;2023-02-22T07:45:29;3.45;;;1.77;;
71164;SDS011;58859;55.132;-1.586;2023-02-22T07:47:56;1.53;;;1.40;;
71164;SDS011;58859;55.132;-1.586;2023-02-22T07:50:22;1.90;;;1.50;;
71164;SDS011;58859;55.132;-1.586;2023-02-22T07:52:49;1.25;;;1.10;;
71164;SDS011;58859;55.132;-1.586;2023-02-22T07:55:16;1.80;;;1.00;;
71164;SDS011;58859;55.132;-1.586;2023-02-22T07:57:46;1.63;;;1.10;;
71164;SDS011;58859;55.132;-1.586;2023-02-22T08:00:13;1.10;;;1.10;;
71164;SDS011;58859;55.132;-1.586;2023-02-22T08:02:40;0.73;;;0.70;;
71164;SDS011;58859;55.132;-1.586;2023-02-22T08:05:06;1.40;;;1.00;;
71164;SDS011;58859;55.132;-1.586;2023-02-22T08:07:34;0.80;;;0.70;;
71164;SDS011;58859;55.132;-1.586;2023-02-22T08:10:00;1.42;;;1.02;;
71164;SDS011;58859;55.132;-1.586;2023-02-22T08:12:30;0.73;;;0.60;;
71164;SDS011;58859;55.132;-1.586;2023-02-22T08:14:55;0.80;;;0.80;;
71164;SDS011;58859;55.132;-1.586;2023-02-22T08:17:20;0.60;;;0.60;;
71164;SDS011;58859;55.132;-1.586;2023-02-22T08:19:46;0.80;;;0.80;;
71164;SDS011;58859;55.132;-1.586;2023-02-22T08:22:12;0.75;;;0.75;;
71164;SDS011;58859;55.132;-1.586;2023-02-22T08:24:37;0.65;;;0.65;;
71164;SDS011;58859;55.132;-1.586;2023-02-22T08:27:02;1.10;;;1.10;;
71164;SDS011;58859;55.132;-1.586;2023-02-22T08:29:28;1.20;;;0.80;;
71164;SDS011;58859;55.132;-1.586;2023-02-22T08:31:57;1.20;;;0.75;;
71164;SDS011;58859;55.132;-1.586;2023-02-22T08:34:23;1.95;;;1.42;;
71164;SDS011;58859;55.132;-1.586;2023-02-22T08:36:49;0.70;;;0.70;;
71164;SDS011;58859;55.132;-1.586;2023-02-22T08:39:14;1.20;;;1.00;;
71164;SDS011;58859;55.132;-1.586;2023-02-22T08:41:40;0.55;;;0.55;;
71164;SDS011;58859;55.132;-1.586;2023-02-22T08:44:05;0.47;;;0.47;;
71164;SDS011;58859;55.132;-1.586;2023-02-22T08:46:31;0.70;;;0.70;;
71164;SDS011;58859;55.132;-1.586;2023-02-22T08:48:56;0.90;;;0.63;;
71164;SDS011;58859;55.132;-1.586;2023-02-22T08:51:22;0.57;;;0.53;;
71164;SDS011;58859;55.132;-1.586;2023-02-22T08:53:47;1.10;;;0.47;;
71164;SDS011;58859;55.132;-1.586;2023-02-22T08:56:13;0.40;;;0.40;;
71164;SDS011;58859;55.132;-1.586;2023-02-22T08:58:38;1.03;;;0.40;;
71164;SDS011;58859;55.132;-1.586;2023-02-22T09:01:04;0.52;;;0.52;;
71164;SDS011;58859;55.132;-1.586;2023-02-22T09:03:29;0.40;;;0.40;;
71164;SDS011;58859;55.132;-1.586;2023-02-22T09:05:55;0.70;;;0.70;;
71164;SDS011;58859;55.132;-1.586;2023-02-22T09:08:20;0.30;;;0.30;;
71164;SDS011;58859;55.132;-1.586;2023-02-22T09:10:46;0.63;;;0.63;;
71164;SDS011;58859;55.132;-1.586;2023-02-22T09:13:11;1.00;;;0.90;;
71164;SDS011;58859;55.132;-1.586;2023-02-22T09:15:37;0.50;;;0.50;;
71164;SDS011;58859;55.132;-1.586;2023-02-22T09:18:05;1.23;;;0.50;;
71164;SDS011;58859;55.132;-1.586;2023-02-22T09:20:32;1.58;;;0.57;;
71164;SDS011;58859;55.132;-1.586;2023-02-22T09:22:59;0.45;;;0.45;;
71164;SDS011;58859;55.132;-1.586;2023-02-22T09:25:27;0.75;;;0.43;;
71164;SDS011;58859;55.132;-1.586;2023-02-22T09:27:53;0.40;;;0.40;;
71164;SDS011;58859;55.132;-1.586;2023-02-22T09:30:29;0.55;;;0.55;;
71164;SDS011;58859;55.132;-1.586;2023-02-22T09:32:57;0.60;;;0.60;;
71164;SDS011;58859;55.132;-1.586;2023-02-22T09:35:24;0.60;;;0.60;;
71164;SDS011;58859;55.132;-1.586;2023-02-22T09:37:54;0.50;;;0.50;;
71164;SDS011;58859;55.132;-1.586;2023-02-22T09:40:20;1.60;;;0.28;;
71164;SDS011;58859;55.132;-1.586;2023-02-22T09:45:38;0.20;;;0.20;;
71164;SDS011;58859;55.132;-1.586;2023-02-22T09:48:09;0.20;;;0.20;;
71164;SDS011;58859;55.132;-1.586;2023-02-22T09:50:39;1.33;;;0.32;;
71164;SDS011;58859;55.132;-1.586;2023-02-22T09:55:42;0.22;;;0.22;;
71164;SDS011;58859;55.132;-1.586;2023-02-22T10:00:53;0.40;;;0.40;;
71164;SDS011;58859;55.132;-1.586;2023-02-22T10:03:28;0.30;;;0.30;;
71164;SDS011;58859;55.132;-1.586;2023-02-22T10:08:29;1.00;;;0.30;;
71164;SDS011;58859;55.132;-1.586;2023-02-22T10:11:02;23.92;;;7.90;;
71164;SDS011;58859;55.132;-1.586;2023-02-22T10:13:47;0.95;;;0.68;;
71164;SDS011;58859;55.132;-1.586;2023-02-22T10:28:08;1.10;;;0.50;;
71164;SDS011;58859;55.132;-1.586;2023-02-22T10:33:23;0.43;;;0.43;;
71164;SDS011;58859;55.132;-1.586;2023-02-22T10:35:54;0.63;;;0.20;;
71164;SDS011;58859;55.132;-1.586;2023-02-22T10:38:20;0.50;;;0.40;;
71164;SDS011;58859;55.132;-1.586;2023-02-22T10:40:53;0.38;;;0.38;;
71164;SDS011;58859;55.132;-1.586;2023-02-22T10:43:21;0.70;;;0.55;;
71164;SDS011;58859;55.132;-1.586;2023-02-22T10:45:47;0.30;;;0.22;;
71164;SDS011;58859;55.132;-1.586;2023-02-22T10:48:16;0.47;;;0.20;;
71164;SDS011;58859;55.132;-1.586;2023-02-22T10:50:45;0.45;;;0.45;;
71164;SDS011;58859;55.132;-1.586;2023-02-22T10:53:13;2.67;;;0.30;;
71164;SDS011;58859;55.132;-1.586;2023-02-22T10:58:29;0.40;;;0.40;;
71164;SDS011;58859;55.132;-1.586;2023-02-22T11:03:56;2.40;;;0.85;;
71164;SDS011;58859;55.132;-1.586;2023-02-22T11:06:25;0.50;;;0.50;;
71164;SDS011;58859;55.132;-1.586;2023-02-22T11:11:30;1.17;;;0.77;;
71164;SDS011;58859;55.132;-1.586;2023-02-22T11:13:56;1.10;;;0.40;;
71164;SDS011;58859;55.132;-1.586;2023-02-22T11:16:34;0.50;;;0.50;;
71164;SDS011;58859;55.132;-1.586;2023-02-22T11:21:51;0.85;;;0.50;;
71164;SDS011;58859;55.132;-1.586;2023-02-22T11:24:18;0.88;;;0.60;;
71164;SDS011;58859;55.132;-1.586;2023-02-22T11:26:48;0.45;;;0.30;;
71164;SDS011;58859;55.132;-1.586;2023-02-22T11:32:02;1.58;;;0.45;;
71164;SDS011;58859;55.132;-1.586;2023-02-22T11:34:39;0.95;;;0.90;;
71164;SDS011;58859;55.132;-1.586;2023-02-22T11:40:12;1.38;;;0.60;;
71164;SDS011;58859;55.132;-1.586;2023-02-22T11:42:46;0.60;;;0.60;;
71164;SDS011;58859;55.132;-1.586;2023-02-22T11:47:57;0.50;;;0.50;;
71164;SDS011;58859;55.132;-1.586;2023-02-22T11:50:32;0.90;;;0.40;;
71164;SDS011;58859;55.132;-1.586;2023-02-22T11:55:38;2.83;;;0.50;;
71164;SDS011;58859;55.132;-1.586;2023-02-22T12:17:00;1.92;;;1.58;;
71164;SDS011;58859;55.132;-1.586;2023-02-22T12:27:47;1.38;;;0.32;;
71164;SDS011;58859;55.132;-1.586;2023-02-22T12:30:26;1.48;;;0.98;;
71164;SDS011;58859;55.132;-1.586;2023-02-22T12:32:57;0.65;;;0.30;;
71164;SDS011;58859;55.132;-1.586;2023-02-22T12:38:02;1.65;;;0.30;;
71164;SDS011;58859;55.132;-1.586;2023-02-22T12:43:20;6.72;;;0.75;;
71164;SDS011;58859;55.132;-1.586;2023-02-22T13:01:49;1.83;;;0.63;;
71164;SDS011;58859;55.132;-1.586;2023-02-22T13:04:18;1.55;;;0.50;;
71164;SDS011;58859;55.132;-1.586;2023-02-22T13:20:40;2.25;;;0.52;;
71164;SDS011;58859;55.132;-1.586;2023-02-22T13:25:40;1.08;;;0.77;;
71164;SDS011;58859;55.132;-1.586;2023-02-22T13:28:32;2.22;;;0.70;;
71164;SDS011;58859;55.132;-1.586;2023-02-22T13:37:04;2.20;;;0.90;;
71164;SDS011;58859;55.132;-1.586;2023-02-22T13:53:13;1.67;;;0.70;;
71164;SDS011;58859;55.132;-1.586;2023-02-22T13:55:42;3.92;;;0.65;;
71164;SDS011;58859;55.132;-1.586;2023-02-22T13:58:11;1.92;;;1.00;;
71164;SDS011;58859;55.132;-1.586;2023-02-22T14:00:42;7.77;;;1.43;;
71164;SDS011;58859;55.132;-1.586;2023-02-22T14:08:06;6.93;;;0.90;;
71164;SDS011;58859;55.132;-1.586;2023-02-22T14:10:55;5.72;;;0.88;;
71164;SDS011;58859;55.132;-1.586;2023-02-22T14:13:23;4.20;;;0.77;;
71164;SDS011;58859;55.132;-1.586;2023-02-22T14:18:24;7.15;;;0.75;;
71164;SDS011;58859;55.132;-1.586;2023-02-22T14:23:39;5.15;;;1.00;;
71164;SDS011;58859;55.132;-1.586;2023-02-22T14:26:09;1.15;;;0.38;;
71164;SDS011;58859;55.132;-1.586;2023-02-22T14:28:41;4.73;;;3.00;;
71164;SDS011;58859;55.132;-1.586;2023-02-22T14:31:20;2.70;;;0.82;;
71164;SDS011;58859;55.132;-1.586;2023-02-22T14:36:32;3.47;;;0.63;;
71164;SDS011;58859;55.132;-1.586;2023-02-22T14:39:17;6.63;;;1.58;;
71164;SDS011;58859;55.132;-1.586;2023-02-22T14:41:50;7.70;;;1.17;;
71164;SDS011;58859;55.132;-1.586;2023-02-22T14:44:22;4.50;;;1.02;;
71164;SDS011;58859;55.132;-1.586;2023-02-22T14:46:50;8.75;;;1.08;;
71164;SDS011;58859;55.132;-1.586;2023-02-22T14:49:17;5.75;;;1.10;;
71164;SDS011;58859;55.132;-1.586;2023-02-22T14:51:56;9.45;;;1.30;;
71164;SDS011;58859;55.132;-1.586;2023-02-22T14:54:30;5.70;;;0.87;;
71164;SDS011;58859;55.132;-1.586;2023-02-22T14:59:58;8.68;;;1.75;;
71164;SDS011;58859;55.132;-1.586;2023-02-22T15:02:47;6.45;;;1.08;;
71164;SDS011;58859;55.132;-1.586;2023-02-22T15:05:14;5.75;;;1.20;;
71164;SDS011;58859;55.132;-1.586;2023-02-22T15:07:53;8.10;;;0.90;;
71164;SDS011;58859;55.132;-1.586;2023-02-22T15:12:57;4.93;;;1.13;;
71164;SDS011;58859;55.132;-1.586;2023-02-22T15:15:33;11.18;;;1.10;;
71164;SDS011;58859;55.132;-1.586;2023-02-22T15:18:20;3.95;;;0.95;;
71164;SDS011;58859;55.132;-1.586;2023-02-22T15:21:18;10.93;;;1.47;;
71164;SDS011;58859;55.132;-1.586;2023-02-22T15:26:20;8.25;;;1.00;;
71164;SDS011;58859;55.132;-1.586;2023-02-22T15:28:47;5.22;;;1.00;;
71164;SDS011;58859;55.132;-1.586;2023-02-22T15:31:22;4.72;;;1.02;;
71164;SDS011;58859;55.132;-1.586;2023-02-22T15:33:51;4.23;;;0.87;;
71164;SDS011;58859;55.132;-1.586;2023-02-22T15:36:17;3.45;;;0.73;;
71164;SDS011;58859;55.132;-1.586;2023-02-22T15:38:47;5.85;;;1.58;;
71164;SDS011;58859;55.132;-1.586;2023-02-22T15:41:21;9.60;;;1.50;;
71164;SDS011;58859;55.132;-1.586;2023-02-22T15:43:57;2.78;;;0.80;;
71164;SDS011;58859;55.132;-1.586;2023-02-22T15:46:31;4.37;;;0.70;;
71164;SDS011;58859;55.132;-1.586;2023-02-22T15:49:03;4.28;;;0.90;;
71164;SDS011;58859;55.132;-1.586;2023-02-22T15:51:43;10.25;;;1.35;;
71164;SDS011;58859;55.132;-1.586;2023-02-22T15:54:10;4.78;;;0.95;;
71164;SDS011;58859;55.132;-1.586;2023-02-22T15:56:39;6.10;;;1.20;;
71164;SDS011;58859;55.132;-1.586;2023-02-22T15:59:12;7.25;;;1.27;;
71164;SDS011;58859;55.132;-1.586;2023-02-22T16:01:42;1.60;;;0.68;;
71164;SDS011;58859;55.132;-1.586;2023-02-22T16:04:16;3.58;;;0.90;;
71164;SDS011;58859;55.132;-1.586;2023-02-22T16:06:42;2.03;;;0.70;;
71164;SDS011;58859;55.132;-1.586;2023-02-22T16:09:09;2.57;;;0.63;;
71164;SDS011;58859;55.132;-1.586;2023-02-22T16:11:37;0.90;;;0.50;;
71164;SDS011;58859;55.132;-1.586;2023-02-22T16:19:53;3.45;;;0.55;;
71164;SDS011;58859;55.132;-1.586;2023-02-22T16:22:32;4.03;;;0.82;;
71164;SDS011;58859;55.132;-1.586;2023-02-22T16:27:43;2.47;;;0.40;;
71164;SDS011;58859;55.132;-1.586;2023-02-22T16:32:44;3.30;;;0.75;;
71164;SDS011;58859;55.132;-1.586;2023-02-22T16:35:11;3.15;;;0.68;;
71164;SDS011;58859;55.132;-1.586;2023-02-22T16:37:58;1.73;;;0.40;;
71164;SDS011;58859;55.132;-1.586;2023-02-22T16:40:26;2.42;;;0.98;;
71164;SDS011;58859;55.132;-1.586;2023-02-22T16:42:56;1.60;;;0.90;;
71164;SDS011;58859;55.132;-1.586;2023-02-22T16:45:25;2.30;;;0.65;;
71164;SDS011;58859;55.132;-1.586;2023-02-22T16:47:50;1.20;;;0.70;;
71164;SDS011;58859;55.132;-1.586;2023-02-22T16:50:17;3.33;;;0.60;;
71164;SDS011;58859;55.132;-1.586;2023-02-22T16:52:43;3.25;;;0.93;;
71164;SDS011;58859;55.132;-1.586;2023-02-22T16:55:10;1.60;;;0.50;;
71164;SDS011;58859;55.132;-1.586;2023-02-22T16:57:37;1.05;;;0.40;;
71164;SDS011;58859;55.132;-1.586;2023-02-22T17:00:04;3.30;;;0.80;;
71164;SDS011;58859;55.132;-1.586;2023-02-22T17:02:32;1.15;;;0.50;;
71164;SDS011;58859;55.132;-1.586;2023-02-22T17:04:57;1.85;;;0.60;;
71164;SDS011;58859;55.132;-1.586;2023-02-22T17:07:23;1.47;;;0.63;;
71164;SDS011;58859;55.132;-1.586;2023-02-22T17:09:53;4.18;;;0.77;;
71164;SDS011;58859;55.132;-1.586;2023-02-22T17:12:22;1.40;;;0.77;;
71164;SDS011;58859;55.132;-1.586;2023-02-22T17:14:48;0.93;;;0.57;;
71164;SDS011;58859;55.132;-1.586;2023-02-22T17:17:14;1.30;;;0.60;;
71164;SDS011;58859;55.132;-1.586;2023-02-22T17:19:39;1.13;;;0.73;;
71164;SDS011;58859;55.132;-1.586;2023-02-22T17:22:05;1.47;;;0.30;;
71164;SDS011;58859;55.132;-1.586;2023-02-22T17:24:33;1.13;;;0.57;;
71164;SDS011;58859;55.132;-1.586;2023-02-22T17:26:59;2.33;;;0.93;;
71164;SDS011;58859;55.132;-1.586;2023-02-22T17:29:25;0.77;;;0.77;;
71164;SDS011;58859;55.132;-1.586;2023-02-22T17:31:52;1.45;;;0.88;;
71164;SDS011;58859;55.132;-1.586;2023-02-22T17:34:18;3.50;;;0.50;;
71164;SDS011;58859;55.132;-1.586;2023-02-22T17:36:43;1.48;;;0.77;;
71164;SDS011;58859;55.132;-1.586;2023-02-22T17:39:09;2.95;;;0.65;;
71164;SDS011;58859;55.132;-1.586;2023-02-22T17:41:35;2.00;;;0.53;;
71164;SDS011;58859;55.132;-1.586;2023-02-22T17:44:01;2.33;;;0.65;;
71164;SDS011;58859;55.132;-1.586;2023-02-22T17:46:26;0.88;;;0.40;;
71164;SDS011;58859;55.132;-1.586;2023-02-22T17:48:52;2.70;;;0.88;;
71164;SDS011;58859;55.132;-1.586;2023-02-22T17:51:21;1.13;;;0.70;;
71164;SDS011;58859;55.132;-1.586;2023-02-22T17:53:48;1.33;;;0.40;;
71164;SDS011;58859;55.132;-1.586;2023-02-22T17:56:15;2.40;;;0.75;;
71164;SDS011;58859;55.132;-1.586;2023-02-22T17:58:45;2.20;;;0.90;;
71164;SDS011;58859;55.132;-1.586;2023-02-22T18:01:22;3.53;;;0.80;;
71164;SDS011;58859;55.132;-1.586;2023-02-22T18:03:51;1.45;;;0.70;;
71164;SDS011;58859;55.132;-1.586;2023-02-22T18:06:18;3.40;;;1.00;;
71164;SDS011;58859;55.132;-1.586;2023-02-22T18:08:44;2.58;;;0.80;;
71164;SDS011;58859;55.132;-1.586;2023-02-22T18:11:12;3.63;;;0.90;;